sensor_id;sensor_type;location;lat;lon;timestamp;pressure;altitude;pressure_sealevel;temperature;humidity
20825;BME280;10573;50.936;6.978;2022-08-19T00:01:30;100874.34;;;22.19;61.09
20825;BME280;10573;50.936;6.978;2022-08-19T00:03:59;100881.13;;;22.29;60.94
20825;BME280;10573;50.936;6.978;2022-08-19T00:06:29;100880.06;;;22.31;61.03
20825;BME280;10573;50.936;6.978;2022-08-19T00:08:56;100882.91;;;22.10;61.55
20825;BME280;10573;50.936;6.978;2022-08-19T00:11:23;100886.72;;;22.16;61.73
20825;BME280;10573;50.936;6.978;2022-08-19T00:13:49;100885.00;;;22.22;61.77
20825;BME280;10573;50.936;6.978;2022-08-19T00:16:16;100878.47;;;21.96;62.01
20825;BME280;10573;50.936;6.978;2022-08-19T00:18:43;100878.50;;;21.83;62.76
20825;BME280;10573;50.936;6.978;2022-08-19T00:21:09;100871.25;;;21.82;62.76
20825;BME280;10573;50.936;6.978;2022-08-19T00:23:35;100876.56;;;21.83;62.64
20825;BME280;10573;50.936;6.978;2022-08-19T00:26:05;100874.47;;;21.78;62.64
20825;BME280;10573;50.936;6.978;2022-08-19T00:28:31;100880.00;;;21.78;62.75
20825;BME280;10573;50.936;6.978;2022-08-19T00:30:58;100882.13;;;21.76;63.05
20825;BME280;10573;50.936;6.978;2022-08-19T00:33:25;100890.88;;;21.87;62.76
20825;BME280;10573;50.936;6.978;2022-08-19T00:35:51;100880.84;;;21.86;62.43
20825;BME280;10573;50.936;6.978;2022-08-19T00:38:17;100884.47;;;21.93;61.87
20825;BME280;10573;50.936;6.978;2022-08-19T00:40:43;100876.97;;;22.00;61.98
20825;BME280;10573;50.936;6.978;2022-08-19T00:43:12;100874.63;;;21.97;61.72
20825;BME280;10573;50.936;6.978;2022-08-19T00:45:39;100874.63;;;21.97;61.83
20825;BME280;10573;50.936;6.978;2022-08-19T00:48:07;100871.22;;;21.88;62.04
20825;BME280;10573;50.936;6.978;2022-08-19T00:50:34;100878.72;;;21.88;62.20
20825;BME280;10573;50.936;6.978;2022-08-19T00:53:01;100875.94;;;21.88;62.33
20825;BME280;10573;50.936;6.978;2022-08-19T00:55:30;100881.03;;;21.91;61.88
20825;BME280;10573;50.936;6.978;2022-08-19T00:58:01;100877.19;;;21.92;62.29
20825;BME280;10573;50.936;6.978;2022-08-19T01:00:28;100878.47;;;21.96;61.82
20825;BME280;10573;50.936;6.978;2022-08-19T01:02:54;100888.06;;;21.93;61.82
20825;BME280;10573;50.936;6.978;2022-08-19T01:05:26;100882.72;;;21.99;61.77
20825;BME280;10573;50.936;6.978;2022-08-19T01:07:53;100885.97;;;21.75;62.71
20825;BME280;10573;50.936;6.978;2022-08-19T01:10:24;100883.84;;;21.51;63.47
20825;BME280;10573;50.936;6.978;2022-08-19T01:12:51;100888.56;;;21.43;63.89
20825;BME280;10573;50.936;6.978;2022-08-19T01:15:21;100880.25;;;21.30;64.32
20825;BME280;10573;50.936;6.978;2022-08-19T01:17:48;100881.31;;;21.29;64.16
20825;BME280;10573;50.936;6.978;2022-08-19T01:20:19;100884.06;;;21.22;64.66
20825;BME280;10573;50.936;6.978;2022-08-19T01:22:52;100881.31;;;21.16;64.41
20825;BME280;10573;50.936;6.978;2022-08-19T01:25:21;100880.03;;;21.25;64.43
20825;BME280;10573;50.936;6.978;2022-08-19T01:27:49;100873.22;;;21.21;64.95
20825;BME280;10573;50.936;6.978;2022-08-19T01:30:24;100875.53;;;21.17;64.64
20825;BME280;10573;50.936;6.978;2022-08-19T01:32:50;100872.34;;;21.13;64.98
20825;BME280;10573;50.936;6.978;2022-08-19T01:35:16;100872.34;;;21.13;64.84
20825;BME280;10573;50.936;6.978;2022-08-19T01:37:51;100867.66;;;21.07;64.76
20825;BME280;10573;50.936;6.978;2022-08-19T01:40:20;100866.59;;;21.08;64.99
20825;BME280;10573;50.936;6.978;2022-08-19T01:42:50;100860.19;;;21.01;65.05
20825;BME280;10573;50.936;6.978;2022-08-19T01:45:17;100864.00;;;21.00;65.19
20825;BME280;10573;50.936;6.978;2022-08-19T01:47:42;100864.00;;;21.00;64.97
20825;BME280;10573;50.936;6.978;2022-08-19T01:50:09;100860.19;;;21.01;65.22
20825;BME280;10573;50.936;6.978;2022-08-19T01:52:37;100858.69;;;21.05;64.90
20825;BME280;10573;50.936;6.978;2022-08-19T01:55:04;100855.31;;;20.97;65.28
20825;BME280;10573;50.936;6.978;2022-08-19T01:57:30;100860.38;;;20.86;65.58
20825;BME280;10573;50.936;6.978;2022-08-19T01:59:56;100863.81;;;20.95;65.44
20825;BME280;10573;50.936;6.978;2022-08-19T02:02:21;100861.22;;;20.87;65.87
20825;BME280;10573;50.936;6.978;2022-08-19T02:04:47;100864.19;;;20.78;65.82
20825;BME280;10573;50.936;6.978;2022-08-19T02:07:13;100874.81;;;20.61;66.67
20825;BME280;10573;50.936;6.978;2022-08-19T02:09:38;100875.84;;;20.54;66.69
20825;BME280;10573;50.936;6.978;2022-08-19T02:12:05;100876.28;;;20.57;66.47
20825;BME280;10573;50.936;6.978;2022-08-19T02:14:34;100867.31;;;20.49;66.92
20825;BME280;10573;50.936;6.978;2022-08-19T02:17:00;100870.06;;;20.49;66.89
20825;BME280;10573;50.936;6.978;2022-08-19T02:19:26;100867.97;;;20.51;67.25
20825;BME280;10573;50.936;6.978;2022-08-19T02:21:51;100862.59;;;20.42;67.43
20825;BME280;10573;50.936;6.978;2022-08-19T02:24:17;100864.06;;;20.38;67.32
20825;BME280;10573;50.936;6.978;2022-08-19T02:26:42;100865.19;;;20.44;67.34
20825;BME280;10573;50.936;6.978;2022-08-19T02:29:08;100871.75;;;20.36;67.74
20825;BME280;10573;50.936;6.978;2022-08-19T02:31:33;100867.22;;;20.28;68.06
20825;BME280;10573;50.936;6.978;2022-08-19T02:33:59;100868.72;;;20.24;68.42
20825;BME280;10573;50.936;6.978;2022-08-19T02:36:25;100869.50;;;20.11;68.70
20825;BME280;10573;50.936;6.978;2022-08-19T02:38:52;100872.75;;;20.22;68.63
20825;BME280;10573;50.936;6.978;2022-08-19T02:41:21;100883.78;;;20.15;68.74
20825;BME280;10573;50.936;6.978;2022-08-19T02:43:47;100885.28;;;20.18;68.71
20825;BME280;10573;50.936;6.978;2022-08-19T02:46:15;100881.84;;;20.09;68.92
20825;BME280;10573;50.936;6.978;2022-08-19T02:48:43;100880.97;;;20.08;68.77
20825;BME280;10573;50.936;6.978;2022-08-19T02:51:15;100887.97;;;20.04;68.79
20825;BME280;10573;50.936;6.978;2022-08-19T02:53:41;100896.28;;;20.04;68.96
20825;BME280;10573;50.936;6.978;2022-08-19T02:56:07;100887.34;;;20.02;69.00
20825;BME280;10573;50.936;6.978;2022-08-19T02:58:33;100894.97;;;20.00;69.22
20825;BME280;10573;50.936;6.978;2022-08-19T03:00:58;100890.28;;;20.01;69.07
20825;BME280;10573;50.936;6.978;2022-08-19T03:03:24;100888.16;;;19.96;69.58
20825;BME280;10573;50.936;6.978;2022-08-19T03:05:49;100889.44;;;20.00;69.12
20825;BME280;10573;50.936;6.978;2022-08-19T03:08:15;100888.84;;;20.11;68.76
20825;BME280;10573;50.936;6.978;2022-08-19T03:10:43;100885.41;;;20.03;69.10
20825;BME280;10573;50.936;6.978;2022-08-19T03:13:10;100886.50;;;20.08;69.00
20825;BME280;10573;50.936;6.978;2022-08-19T03:15:40;100888.16;;;19.96;69.23
20825;BME280;10573;50.936;6.978;2022-08-19T03:18:06;100880.44;;;19.91;69.66
20825;BME280;10573;50.936;6.978;2022-08-19T03:20:31;100888.13;;;19.89;70.07
20825;BME280;10573;50.936;6.978;2022-08-19T03:22:57;100889.78;;;19.84;70.30
20825;BME280;10573;50.936;6.978;2022-08-19T03:25:23;100894.16;;;19.78;70.29
20825;BME280;10573;50.936;6.978;2022-08-19T03:27:48;100895.00;;;19.72;70.71
20825;BME280;10573;50.936;6.978;2022-08-19T03:30:14;100903.53;;;19.77;70.59
20825;BME280;10573;50.936;6.978;2022-08-19T03:32:39;100906.63;;;19.67;70.79
20825;BME280;10573;50.936;6.978;2022-08-19T03:35:06;100897.53;;;19.73;70.84
20825;BME280;10573;50.936;6.978;2022-08-19T03:37:31;100907.94;;;19.71;70.87
20825;BME280;10573;50.936;6.978;2022-08-19T03:39:57;100906.63;;;19.67;71.11
20825;BME280;10573;50.936;6.978;2022-08-19T03:42:22;100903.88;;;19.67;71.04
20825;BME280;10573;50.936;6.978;2022-08-19T03:44:48;100910.06;;;19.69;70.84
20825;BME280;10573;50.936;6.978;2022-08-19T03:47:14;100908.31;;;19.61;71.03
20825;BME280;10573;50.936;6.978;2022-08-19T03:49:40;100915.75;;;19.61;71.26
20825;BME280;10573;50.936;6.978;2022-08-19T03:52:05;100913.41;;;19.58;71.40
20825;BME280;10573;50.936;6.978;2022-08-19T03:54:34;100910.38;;;19.53;71.38
20825;BME280;10573;50.936;6.978;2022-08-19T03:56:59;100915.50;;;19.56;71.38
20825;BME280;10573;50.936;6.978;2022-08-19T03:59:28;100908.72;;;19.58;71.34
20825;BME280;10573;50.936;6.978;2022-08-19T04:01:58;100911.63;;;19.50;71.59
20825;BME280;10573;50.936;6.978;2022-08-19T04:04:25;100911.44;;;19.52;71.58
20825;BME280;10573;50.936;6.978;2022-08-19T04:06:52;100915.38;;;19.42;71.83
20825;BME280;10573;50.936;6.978;2022-08-19T04:09:18;100917.59;;;19.54;71.58
20825;BME280;10573;50.936;6.978;2022-08-19T04:11:47;100919.09;;;19.56;71.36
20825;BME280;10573;50.936;6.978;2022-08-19T04:14:15;100925.94;;;19.60;71.29
20825;BME280;10573;50.936;6.978;2022-08-19T04:16:42;100922.06;;;19.55;71.39
20825;BME280;10573;50.936;6.978;2022-08-19T04:19:10;100927.84;;;19.60;71.24
20825;BME280;10573;50.936;6.978;2022-08-19T04:21:36;100925.75;;;19.62;71.16
20825;BME280;10573;50.936;6.978;2022-08-19T04:24:02;100925.59;;;19.70;71.44
20825;BME280;10573;50.936;6.978;2022-08-19T04:26:31;100928.50;;;19.84;71.06
20825;BME280;10573;50.936;6.978;2022-08-19T04:28:58;100928.50;;;19.84;71.07
20825;BME280;10573;50.936;6.978;2022-08-19T04:31:29;100934.50;;;19.94;70.83
20825;BME280;10573;50.936;6.978;2022-08-19T04:33:57;100933.00;;;19.91;70.80
20825;BME280;10573;50.936;6.978;2022-08-19T04:36:29;100930.84;;;19.87;71.04
20825;BME280;10573;50.936;6.978;2022-08-19T04:38:57;100930.69;;;19.95;70.77
20825;BME280;10573;50.936;6.978;2022-08-19T04:41:24;100930.47;;;19.97;70.86
20825;BME280;10573;50.936;6.978;2022-08-19T04:44:08;100941.31;;;19.98;70.66
20825;BME280;10573;50.936;6.978;2022-08-19T04:46:33;100945.66;;;20.07;70.67
20825;BME280;10573;50.936;6.978;2022-08-19T04:49:00;100941.88;;;20.15;70.26
20825;BME280;10573;50.936;6.978;2022-08-19T04:51:26;100935.34;;;20.29;69.83
20825;BME280;10573;50.936;6.978;2022-08-19T04:53:52;100936.00;;;20.38;69.44
20825;BME280;10573;50.936;6.978;2022-08-19T04:56:19;100945.78;;;20.34;69.67
20825;BME280;10573;50.936;6.978;2022-08-19T04:58:46;100956.78;;;20.21;70.12
20825;BME280;10573;50.936;6.978;2022-08-19T05:01:20;100955.81;;;20.35;69.85
20825;BME280;10573;50.936;6.978;2022-08-19T05:03:46;100952.06;;;20.50;69.43
20825;BME280;10573;50.936;6.978;2022-08-19T05:06:14;100952.84;;;20.43;69.41
20825;BME280;10573;50.936;6.978;2022-08-19T05:08:41;100952.06;;;20.50;69.56
20825;BME280;10573;50.936;6.978;2022-08-19T05:11:16;100951.84;;;20.51;69.20
20825;BME280;10573;50.936;6.978;2022-08-19T05:13:46;100964.16;;;20.49;69.53
20825;BME280;10573;50.936;6.978;2022-08-19T05:16:12;100961.00;;;20.58;68.99
20825;BME280;10573;50.936;6.978;2022-08-19T05:18:39;100958.69;;;20.62;68.84
20825;BME280;10573;50.936;6.978;2022-08-19T05:21:24;100977.44;;;20.67;68.80
20825;BME280;10573;50.936;6.978;2022-08-19T05:24:09;100973.31;;;20.84;68.46
20825;BME280;10573;50.936;6.978;2022-08-19T05:26:39;100977.53;;;20.80;68.50
20825;BME280;10573;50.936;6.978;2022-08-19T05:29:05;100974.13;;;20.78;68.88
20825;BME280;10573;50.936;6.978;2022-08-19T05:31:31;100971.97;;;20.80;68.96
20825;BME280;10573;50.936;6.978;2022-08-19T05:33:57;100977.72;;;20.78;68.85
20825;BME280;10573;50.936;6.978;2022-08-19T05:36:24;100974.34;;;20.76;68.37
20825;BME280;10573;50.936;6.978;2022-08-19T05:38:50;100981.16;;;20.81;68.47
20825;BME280;10573;50.936;6.978;2022-08-19T05:41:17;100981.66;;;20.56;69.17
20825;BME280;10573;50.936;6.978;2022-08-19T05:43:43;100985.75;;;20.60;69.09
20825;BME280;10573;50.936;6.978;2022-08-19T05:46:16;100981.91;;;20.61;69.36
20825;BME280;10573;50.936;6.978;2022-08-19T05:48:43;100984.66;;;20.61;69.27
20825;BME280;10573;50.936;6.978;2022-08-19T05:51:08;100977.50;;;20.73;68.79
20825;BME280;10573;50.936;6.978;2022-08-19T05:53:34;100979.56;;;20.65;68.67
20825;BME280;10573;50.936;6.978;2022-08-19T05:56:12;100981.06;;;20.67;69.04
20825;BME280;10573;50.936;6.978;2022-08-19T05:58:38;100982.97;;;20.67;69.22
20825;BME280;10573;50.936;6.978;2022-08-19T06:01:09;100988.16;;;20.70;69.03
20825;BME280;10573;50.936;6.978;2022-08-19T06:03:35;100989.03;;;20.77;68.84
20825;BME280;10573;50.936;6.978;2022-08-19T06:06:03;100980.47;;;20.72;68.96
20825;BME280;10573;50.936;6.978;2022-08-19T06:08:29;100981.34;;;20.72;69.52
20825;BME280;10573;50.936;6.978;2022-08-19T06:10:55;100966.84;;;20.70;69.48
20825;BME280;10573;50.936;6.978;2022-08-19T06:13:21;100963.25;;;20.76;69.35
20825;BME280;10573;50.936;6.978;2022-08-19T06:15:48;100971.56;;;20.76;69.52
20825;BME280;10573;50.936;6.978;2022-08-19T06:18:14;100962.59;;;20.74;69.74
20825;BME280;10573;50.936;6.978;2022-08-19T06:20:41;100957.88;;;20.68;70.04
20825;BME280;10573;50.936;6.978;2022-08-19T06:23:07;100973.91;;;20.79;69.43
20825;BME280;10573;50.936;6.978;2022-08-19T06:25:34;100967.56;;;20.86;69.35
20825;BME280;10573;50.936;6.978;2022-08-19T06:28:00;100976.25;;;20.83;69.73
20825;BME280;10573;50.936;6.978;2022-08-19T06:30:26;100971.56;;;20.76;69.73
20825;BME280;10573;50.936;6.978;2022-08-19T06:32:51;100969.91;;;20.95;69.40
20825;BME280;10573;50.936;6.978;2022-08-19T06:35:17;100972.94;;;21.07;69.03
20825;BME280;10573;50.936;6.978;2022-08-19T06:37:42;100969.13;;;21.22;68.41
20825;BME280;10573;50.936;6.978;2022-08-19T06:40:09;100965.03;;;21.18;68.53
20825;BME280;10573;50.936;6.978;2022-08-19T06:42:36;100973.78;;;21.15;68.46
20825;BME280;10573;50.936;6.978;2022-08-19T06:45:04;100973.56;;;21.09;68.48
20825;BME280;10573;50.936;6.978;2022-08-19T06:47:30;100984.25;;;21.19;68.27
20825;BME280;10573;50.936;6.978;2022-08-19T06:49:58;100986.38;;;21.24;68.58
20825;BME280;10573;50.936;6.978;2022-08-19T06:52:30;100983.81;;;21.22;68.73
20825;BME280;10573;50.936;6.978;2022-08-19T06:54:56;100978.94;;;21.44;67.53
20825;BME280;10573;50.936;6.978;2022-08-19T06:57:23;100978.13;;;21.64;66.78
20825;BME280;10573;50.936;6.978;2022-08-19T06:59:49;100981.97;;;21.70;66.67
20825;BME280;10573;50.936;6.978;2022-08-19T07:02:14;100986.66;;;21.83;66.43
20825;BME280;10573;50.936;6.978;2022-08-19T07:04:40;100979.41;;;21.95;66.13
20825;BME280;10573;50.936;6.978;2022-08-19T07:07:08;100992.19;;;22.16;65.80
20825;BME280;10573;50.936;6.978;2022-08-19T07:09:35;100992.75;;;22.32;65.37
20825;BME280;10573;50.936;6.978;2022-08-19T07:12:04;101001.34;;;22.17;65.17
20825;BME280;10573;50.936;6.978;2022-08-19T07:14:30;100995.78;;;22.37;64.65
20825;BME280;10573;50.936;6.978;2022-08-19T07:16:56;100996.84;;;22.36;64.54
20825;BME280;10573;50.936;6.978;2022-08-19T07:19:25;101002.78;;;22.53;64.33
20825;BME280;10573;50.936;6.978;2022-08-19T07:21:53;101007.50;;;22.32;64.52
20825;BME280;10573;50.936;6.978;2022-08-19T07:24:21;101007.31;;;22.40;64.28
20825;BME280;10573;50.936;6.978;2022-08-19T07:26:49;101010.06;;;22.54;64.08
20825;BME280;10573;50.936;6.978;2022-08-19T07:29:16;101005.03;;;22.76;63.10
20825;BME280;10573;50.936;6.978;2022-08-19T07:31:42;101016.31;;;22.88;62.54
20825;BME280;10573;50.936;6.978;2022-08-19T07:34:09;101011.19;;;22.91;62.51
20825;BME280;10573;50.936;6.978;2022-08-19T07:36:37;101025.22;;;23.03;61.81
20825;BME280;10573;50.936;6.978;2022-08-19T07:39:12;101018.72;;;23.23;60.90
20825;BME280;10573;50.936;6.978;2022-08-19T07:41:38;101022.16;;;23.25;60.45
20825;BME280;10573;50.936;6.978;2022-08-19T07:44:04;101029.84;;;23.23;60.24
20825;BME280;10573;50.936;6.978;2022-08-19T07:46:36;101027.47;;;23.26;60.35
20825;BME280;10573;50.936;6.978;2022-08-19T07:49:03;101030.56;;;23.05;60.62
20825;BME280;10573;50.936;6.978;2022-08-19T07:51:29;101038.91;;;23.05;60.36
20825;BME280;10573;50.936;6.978;2022-08-19T07:53:55;101040.16;;;23.16;59.96
20825;BME280;10573;50.936;6.978;2022-08-19T07:56:21;101042.75;;;23.04;60.32
20825;BME280;10573;50.936;6.978;2022-08-19T07:58:49;101037.22;;;22.97;60.17
20825;BME280;10573;50.936;6.978;2022-08-19T08:01:23;101041.97;;;22.90;60.48
20825;BME280;10573;50.936;6.978;2022-08-19T08:03:51;101047.00;;;23.06;60.17
20825;BME280;10573;50.936;6.978;2022-08-19T08:06:37;101050.91;;;22.92;60.93
20825;BME280;10573;50.936;6.978;2022-08-19T08:09:35;101058.22;;;22.86;60.96
20825;BME280;10573;50.936;6.978;2022-08-19T08:12:05;101055.47;;;22.73;61.50
20825;BME280;10573;50.936;6.978;2022-08-19T08:14:38;101057.84;;;22.69;61.49
20825;BME280;10573;50.936;6.978;2022-08-19T08:17:05;101058.03;;;22.74;62.15
20825;BME280;10573;50.936;6.978;2022-08-19T08:19:31;101064.84;;;22.85;61.81
20825;BME280;10573;50.936;6.978;2022-08-19T08:21:58;101071.06;;;22.81;62.06
20825;BME280;10573;50.936;6.978;2022-08-19T08:24:25;101062.22;;;22.97;61.91
20825;BME280;10573;50.936;6.978;2022-08-19T08:26:51;101061.47;;;23.22;61.43
20825;BME280;10573;50.936;6.978;2022-08-19T08:29:17;101059.28;;;23.37;60.68
20825;BME280;10573;50.936;6.978;2022-08-19T08:31:45;101068.09;;;23.59;60.06
20825;BME280;10573;50.936;6.978;2022-08-19T08:34:11;101064.56;;;23.77;59.26
20825;BME280;10573;50.936;6.978;2022-08-19T08:36:43;101055.53;;;23.82;59.03
20825;BME280;10573;50.936;6.978;2022-08-19T08:39:12;101057.22;;;23.90;58.75
20825;BME280;10573;50.936;6.978;2022-08-19T08:44:23;101053.09;;;24.61;57.06
20825;BME280;10573;50.936;6.978;2022-08-19T08:46:53;101045.78;;;24.67;56.43
20825;BME280;10573;50.936;6.978;2022-08-19T08:52:27;101053.34;;;24.41;56.89
20825;BME280;10573;50.936;6.978;2022-08-19T08:54:57;101057.97;;;24.48;57.33
20825;BME280;10573;50.936;6.978;2022-08-19T08:57:29;101052.84;;;24.70;57.15
20825;BME280;10573;50.936;6.978;2022-08-19T08:59:57;101051.81;;;24.64;56.48
20825;BME280;10573;50.936;6.978;2022-08-19T09:02:26;101059.34;;;24.82;56.64
20825;BME280;10573;50.936;6.978;2022-08-19T09:04:53;101053.84;;;24.94;56.44
20825;BME280;10573;50.936;6.978;2022-08-19T09:09:52;101050.66;;;24.90;55.51
20825;BME280;10573;50.936;6.978;2022-08-19T09:12:34;101054.22;;;25.46;53.39
20825;BME280;10573;50.936;6.978;2022-08-19T09:15:09;101051.34;;;26.43;50.88
20825;BME280;10573;50.936;6.978;2022-08-19T09:17:35;101046.09;;;26.46;50.24
20825;BME280;10573;50.936;6.978;2022-08-19T09:22:37;101045.38;;;27.44;48.08
20825;BME280;10573;50.936;6.978;2022-08-19T09:25:03;101035.66;;;28.32;46.04
20825;BME280;10573;50.936;6.978;2022-08-19T09:27:30;101034.13;;;28.63;44.10
20825;BME280;10573;50.936;6.978;2022-08-19T09:29:57;101038.88;;;28.63;44.13
20825;BME280;10573;50.936;6.978;2022-08-19T09:32:23;101036.34;;;28.05;45.25
20825;BME280;10573;50.936;6.978;2022-08-19T09:34:49;101035.59;;;28.27;45.91
20825;BME280;10573;50.936;6.978;2022-08-19T09:37:14;101032.72;;;28.22;45.06
20825;BME280;10573;50.936;6.978;2022-08-19T09:39:40;101036.31;;;28.78;43.64
20825;BME280;10573;50.936;6.978;2022-08-19T09:42:09;101038.66;;;28.87;43.97
20825;BME280;10573;50.936;6.978;2022-08-19T09:44:38;101042.44;;;28.36;43.63
20825;BME280;10573;50.936;6.978;2022-08-19T09:47:04;101042.31;;;28.65;43.19
20825;BME280;10573;50.936;6.978;2022-08-19T09:49:30;101046.03;;;27.98;44.39
20825;BME280;10573;50.936;6.978;2022-08-19T09:51:56;101048.78;;;28.88;42.54
20825;BME280;10573;50.936;6.978;2022-08-19T09:54:22;101046.06;;;28.54;42.90
20825;BME280;10573;50.936;6.978;2022-08-19T09:56:48;101033.28;;;28.24;43.35
20825;BME280;10573;50.936;6.978;2022-08-19T09:59:13;101031.19;;;28.53;43.06
20825;BME280;10573;50.936;6.978;2022-08-19T10:01:39;101034.19;;;29.35;41.61
20825;BME280;10573;50.936;6.978;2022-08-19T10:04:04;101030.47;;;29.57;40.96
20825;BME280;10573;50.936;6.978;2022-08-19T10:06:35;101030.81;;;29.93;39.74
20825;BME280;10573;50.936;6.978;2022-08-19T10:09:02;101027.59;;;29.79;39.75
20825;BME280;10573;50.936;6.978;2022-08-19T10:11:29;101040.03;;;29.56;40.97
20825;BME280;10573;50.936;6.978;2022-08-19T10:13:55;101027.88;;;29.77;39.71
20825;BME280;10573;50.936;6.978;2022-08-19T10:16:22;101028.97;;;29.76;39.15
20825;BME280;10573;50.936;6.978;2022-08-19T10:18:49;101018.91;;;30.56;37.38
20825;BME280;10573;50.936;6.978;2022-08-19T10:21:27;101020.19;;;30.96;37.18
20825;BME280;10573;50.936;6.978;2022-08-19T10:23:56;101023.78;;;31.60;35.18
20825;BME280;10573;50.936;6.978;2022-08-19T10:26:26;101021.28;;;30.32;36.81
20825;BME280;10573;50.936;6.978;2022-08-19T10:28:52;101032.09;;;28.59;41.61
20825;BME280;10573;50.936;6.978;2022-08-19T10:31:21;101029.94;;;28.44;41.03
20825;BME280;10573;50.936;6.978;2022-08-19T10:33:48;101021.78;;;28.20;41.71
20825;BME280;10573;50.936;6.978;2022-08-19T10:36:18;101023.19;;;29.56;39.58
20825;BME280;10573;50.936;6.978;2022-08-19T10:38:46;101018.97;;;30.23;38.31
20825;BME280;10573;50.936;6.978;2022-08-19T10:41:23;101017.69;;;29.39;40.15
20825;BME280;10573;50.936;6.978;2022-08-19T10:43:54;101017.91;;;29.10;40.50
20825;BME280;10573;50.936;6.978;2022-08-19T10:46:22;101011.25;;;29.71;39.55
20825;BME280;10573;50.936;6.978;2022-08-19T10:48:48;100999.50;;;30.54;38.24
20825;BME280;10573;50.936;6.978;2022-08-19T10:51:15;101000.19;;;29.91;39.25
20825;BME280;10573;50.936;6.978;2022-08-19T10:53:59;100996.00;;;29.34;40.28
20825;BME280;10573;50.936;6.978;2022-08-19T10:56:26;101005.91;;;29.15;40.92
20825;BME280;10573;50.936;6.978;2022-08-19T10:59:11;100989.03;;;30.44;38.23
20825;BME280;10573;50.936;6.978;2022-08-19T11:01:39;100992.50;;;30.67;37.38
20825;BME280;10573;50.936;6.978;2022-08-19T11:04:04;100991.66;;;30.19;38.27
20825;BME280;10573;50.936;6.978;2022-08-19T11:06:33;100982.84;;;29.67;39.15
20825;BME280;10573;50.936;6.978;2022-08-19T11:08:58;100994.13;;;29.72;39.26
20825;BME280;10573;50.936;6.978;2022-08-19T11:11:26;100999.00;;;29.00;40.55
20825;BME280;10573;50.936;6.978;2022-08-19T11:13:51;100999.75;;;29.18;40.64
20825;BME280;10573;50.936;6.978;2022-08-19T11:16:25;100995.16;;;30.41;39.89
20825;BME280;10573;50.936;6.978;2022-08-19T11:18:54;100987.91;;;31.09;36.55
20825;BME280;10573;50.936;6.978;2022-08-19T11:21:30;100992.06;;;32.61;34.20
20825;BME280;10573;50.936;6.978;2022-08-19T11:23:59;100989.97;;;31.75;35.67
20825;BME280;10573;50.936;6.978;2022-08-19T11:26:25;100989.88;;;32.37;34.14
20825;BME280;10573;50.936;6.978;2022-08-19T11:28:51;100978.13;;;31.89;34.34
20825;BME280;10573;50.936;6.978;2022-08-19T11:31:22;100989.88;;;32.48;33.65
20825;BME280;10573;50.936;6.978;2022-08-19T11:33:48;100984.69;;;32.75;32.94
20825;BME280;10573;50.936;6.978;2022-08-19T11:36:18;100987.16;;;31.91;34.25
20825;BME280;10573;50.936;6.978;2022-08-19T11:38:48;100972.66;;;33.09;32.38
20825;BME280;10573;50.936;6.978;2022-08-19T11:41:16;100976.22;;;33.65;31.61
20825;BME280;10573;50.936;6.978;2022-08-19T11:43:42;100985.81;;;32.79;32.63
20825;BME280;10573;50.936;6.978;2022-08-19T11:46:10;100986.81;;;32.03;34.01
20825;BME280;10573;50.936;6.978;2022-08-19T11:48:37;100991.94;;;30.60;36.00
20825;BME280;10573;50.936;6.978;2022-08-19T11:51:15;100982.38;;;31.66;34.56
20825;BME280;10573;50.936;6.978;2022-08-19T11:53:41;100981.66;;;33.11;32.81
20825;BME280;10573;50.936;6.978;2022-08-19T11:56:08;100976.59;;;32.48;32.86
20825;BME280;10573;50.936;6.978;2022-08-19T11:58:34;100972.72;;;32.99;32.04
20825;BME280;10573;50.936;6.978;2022-08-19T12:01:00;100970.50;;;34.05;30.39
20825;BME280;10573;50.936;6.978;2022-08-19T12:03:26;100977.09;;;33.60;31.21
20825;BME280;10573;50.936;6.978;2022-08-19T12:05:52;100971.22;;;34.45;29.91
20825;BME280;10573;50.936;6.978;2022-08-19T12:08:18;100971.25;;;34.64;29.41
20825;BME280;10573;50.936;6.978;2022-08-19T12:10:44;100970.38;;;34.15;29.76
20825;BME280;10573;50.936;6.978;2022-08-19T12:13:12;100974.22;;;32.86;31.45
20825;BME280;10573;50.936;6.978;2022-08-19T12:15:45;100980.81;;;32.51;32.18
20825;BME280;10573;50.936;6.978;2022-08-19T12:18:11;100984.84;;;33.44;30.86
20825;BME280;10573;50.936;6.978;2022-08-19T12:20:40;100974.66;;;34.12;29.81
20825;BME280;10573;50.936;6.978;2022-08-19T12:23:07;100974.28;;;33.16;31.25
20825;BME280;10573;50.936;6.978;2022-08-19T12:25:35;100971.72;;;32.64;32.41
20825;BME280;10573;50.936;6.978;2022-08-19T12:28:01;100983.41;;;33.52;29.66
20825;BME280;10573;50.936;6.978;2022-08-19T12:30:26;100966.34;;;34.21;28.79
20825;BME280;10573;50.936;6.978;2022-08-19T12:32:52;100958.69;;;35.33;26.81
20825;BME280;10573;50.936;6.978;2022-08-19T12:35:18;100963.88;;;36.10;26.30
20825;BME280;10573;50.936;6.978;2022-08-19T12:37:46;100959.63;;;35.61;26.37
20825;BME280;10573;50.936;6.978;2022-08-19T12:40:13;100962.31;;;34.03;27.69
20825;BME280;10573;50.936;6.978;2022-08-19T12:42:39;100955.00;;;34.51;27.54
20825;BME280;10573;50.936;6.978;2022-08-19T12:45:11;100956.56;;;34.38;27.94
20825;BME280;10573;50.936;6.978;2022-08-19T12:47:38;100946.03;;;36.38;25.68
20825;BME280;10573;50.936;6.978;2022-08-19T12:50:04;100943.56;;;35.89;26.82
20825;BME280;10573;50.936;6.978;2022-08-19T12:52:31;100949.00;;;34.33;29.06
20825;BME280;10573;50.936;6.978;2022-08-19T12:54:57;100948.19;;;32.29;31.41
20825;BME280;10573;50.936;6.978;2022-08-19T12:57:25;100958.94;;;32.01;32.60
20825;BME280;10573;50.936;6.978;2022-08-19T12:59:53;100960.03;;;31.12;33.72
20825;BME280;10573;50.936;6.978;2022-08-19T13:02:19;100953.19;;;32.48;31.79
20825;BME280;10573;50.936;6.978;2022-08-19T13:04:45;100954.06;;;33.03;30.85